Time;durP1;ratioP1;P1;durP2;ratioP2;P2;SDS_P1;SDS_P2;PMS_P1;PMS_P2;Temp;Humidity;BMP_temperature;BMP_pressure;BME280_temperature;BME280_humidity;BME280_pressure;Samples;Min_cycle;Max_cycle;Signal;HPM_P1;HPM_P2
2023/10/07 00:00:32;;;;;;;13.75;5.35;;;13.20;99.90;;;;;;5074675;28;20029;-77
2023/10/07 00:03:03;;;;;;;17.02;5.05;;;13.20;99.90;;;;;;5073367;28;20449;-77
2023/10/07 00:05:32;;;;;;;15.52;5.22;;;13.20;99.90;;;;;;5075319;28;20040;-77
2023/10/07 00:08:35;;;;;;;14.00;5.07;;;13.20;99.90;;;;;;5073748;28;20024;-77
2023/10/07 00:10:58;;;;;;;11.88;4.30;;;13.10;99.90;;;;;;5071915;28;20123;-77
2023/10/07 00:13:26;;;;;;;13.40;5.05;;;13.10;99.90;;;;;;5075570;28;20111;-76
2023/10/07 00:15:53;;;;;;;14.25;4.90;;;13.10;99.90;;;;;;5075141;28;20036;-78
2023/10/07 00:18:19;;;;;;;14.73;5.38;;;13.10;99.90;;;;;;5075596;28;20365;-77
2023/10/07 00:20:51;;;;;;;13.15;5.55;;;13.00;99.90;;;;;;5074108;28;20024;-77
2023/10/07 00:23:20;;;;;;;;;;;13.00;99.90;;;;;;5076015;28;20454;-77
2023/10/07 00:25:52;;;;;;;11.75;5.30;;;12.90;99.90;;;;;;5074160;28;19905;-77
2023/10/07 00:28:27;;;;;;;14.65;5.30;;;12.90;99.90;;;;;;5074079;28;20063;-77
2023/10/07 00:30:55;;;;;;;14.57;5.13;;;12.80;99.90;;;;;;5074686;28;20029;-78
2023/10/07 00:33:21;;;;;;;15.57;5.18;;;12.80;99.90;;;;;;5074254;28;20025;-78
2023/10/07 00:35:53;;;;;;;16.50;5.43;;;12.70;99.90;;;;;;5074375;28;20052;-77
2023/10/07 00:38:37;;;;;;;;;;;12.70;99.90;;;;;;5076543;28;20020;-77
2023/10/07 00:41:12;;;;;;;12.35;5.40;;;12.70;99.90;;;;;;5074066;28;19927;-77
2023/10/07 00:43:37;;;;;;;16.17;4.95;;;12.60;99.90;;;;;;5074507;28;20024;-77
2023/10/07 00:46:10;;;;;;;13.43;4.85;;;12.60;99.90;;;;;;5076229;28;20032;-78
2023/10/07 00:48:45;;;;;;;12.65;5.00;;;12.60;99.90;;;;;;5075964;28;20017;-77
2023/10/07 00:51:11;;;;;;;12.35;5.43;;;12.60;99.90;;;;;;5073812;28;20028;-77
2023/10/07 00:53:45;;;;;;;10.57;5.00;;;12.50;99.90;;;;;;5075609;28;20094;-77
2023/10/07 00:56:13;;;;;;;13.63;5.03;;;12.50;99.90;;;;;;5074451;28;20131;-77
2023/10/07 00:58:41;;;;;;;15.75;6.00;;;12.50;99.90;;;;;;5075591;28;20024;-77
2023/10/07 01:01:09;;;;;;;12.63;4.88;;;12.40;99.90;;;;;;5075638;28;20025;-78
2023/10/07 01:03:47;;;;;;;14.23;5.10;;;12.40;99.90;;;;;;5074489;28;20036;-78
2023/10/07 01:06:31;;;;;;;14.32;5.03;;;12.30;99.90;;;;;;5069219;28;20048;-77
2023/10/07 01:09:14;;;;;;;12.65;5.13;;;12.30;99.90;;;;;;5074344;28;20453;-78
2023/10/07 01:11:42;;;;;;;12.88;4.32;;;12.30;99.90;;;;;;5074172;28;20453;-77
2023/10/07 01:14:11;;;;;;;11.50;4.78;;;12.30;99.90;;;;;;5074132;28;20021;-77
2023/10/07 01:16:41;;;;;;;14.88;5.00;;;12.30;99.90;;;;;;5074077;28;20036;-77
2023/10/07 01:21:50;;;;;;;12.30;5.40;;;12.30;99.90;;;;;;5074721;28;20029;-77
2023/10/07 01:24:23;;;;;;;13.55;5.57;;;12.20;99.90;;;;;;5072953;28;20032;-77
2023/10/07 01:26:49;;;;;;;13.77;5.72;;;12.20;99.90;;;;;;5074070;28;20029;-76
2023/10/07 01:29:15;;;;;;;16.83;5.65;;;12.20;99.90;;;;;;5072389;28;20035;-77
2023/10/07 01:34:38;;;;;;;12.38;5.20;;;12.20;99.90;;;;;;5068776;28;20049;-77
2023/10/07 01:37:11;;;;;;;12.32;4.72;;;12.20;99.90;;;;;;5071795;28;20021;-78
2023/10/07 01:39:40;;;;;;;14.88;5.03;;;12.20;99.90;;;;;;5072883;28;20036;-77
2023/10/07 01:42:14;;;;;;;11.05;4.97;;;12.20;99.90;;;;;;5071985;28;20035;-77
2023/10/07 01:44:41;;;;;;;14.07;5.30;;;12.20;99.90;;;;;;5072762;28;20032;-77
2023/10/07 01:47:23;;;;;;;12.90;4.72;;;12.10;99.90;;;;;;5073349;28;20021;-77
2023/10/07 01:49:53;;;;;;;12.25;4.85;;;12.00;99.90;;;;;;5073708;28;20023;-77
2023/10/07 01:52:21;;;;;;;15.70;4.95;;;12.00;99.90;;;;;;5073203;28;20190;-77
2023/10/07 01:54:47;;;;;;;12.18;4.72;;;12.00;99.90;;;;;;5073857;28;20032;-77
2023/10/07 01:57:15;;;;;;;14.95;4.90;;;12.00;99.90;;;;;;5073859;28;20025;-77
2023/10/07 01:59:41;;;;;;;14.13;4.68;;;12.00;99.90;;;;;;5072898;28;20112;-77
2023/10/07 02:02:06;;;;;;;12.77;4.38;;;12.00;99.90;;;;;;5071560;28;20056;-77
2023/10/07 02:04:36;;;;;;;12.85;4.95;;;12.00;99.90;;;;;;5073437;28;20047;-77
2023/10/07 02:07:02;;;;;;;13.50;4.90;;;11.90;99.90;;;;;;5071887;28;20024;-77
2023/10/07 02:09:35;;;;;;;14.20;5.40;;;11.90;99.90;;;;;;5072119;28;20021;-77
2023/10/07 02:12:01;;;;;;;11.73;4.60;;;12.00;99.90;;;;;;5072887;28;20024;-77
2023/10/07 02:14:28;;;;;;;10.90;4.70;;;11.90;99.90;;;;;;5073077;28;20036;-77
2023/10/07 02:16:56;;;;;;;11.30;4.85;;;11.90;99.90;;;;;;5071612;28;20024;-77
2023/10/07 02:19:29;;;;;;;9.40;4.85;;;11.90;99.90;;;;;;5071587;28;20028;-77
2023/10/07 02:22:03;;;;;;;13.63;4.85;;;11.80;99.90;;;;;;5072107;28;20047;-76
2023/10/07 02:24:30;;;;;;;12.88;4.68;;;11.80;99.90;;;;;;5073235;28;20029;-77
2023/10/07 02:27:04;;;;;;;11.50;4.25;;;11.80;99.90;;;;;;5071706;28;20021;-77
2023/10/07 02:29:30;;;;;;;11.38;4.90;;;11.80;99.90;;;;;;5072116;28;20381;-77
2023/10/07 02:32:07;;;;;;;11.27;4.40;;;11.80;99.90;;;;;;5072095;28;20123;-77
2023/10/07 02:34:34;;;;;;;11.13;5.28;;;11.80;99.90;;;;;;5072832;28;20056;-76
2023/10/07 02:37:13;;;;;;;14.80;5.55;;;11.70;99.90;;;;;;5071404;28;20532;-78
2023/10/07 02:39:48;;;;;;;11.48;4.97;;;11.70;99.90;;;;;;5071940;28;20032;-77
2023/10/07 02:42:24;;;;;;;11.13;4.78;;;11.70;99.90;;;;;;5071639;28;20395;-78
2023/10/07 02:45:01;;;;;;;11.68;4.78;;;11.80;99.90;;;;;;5072380;28;20113;-78
2023/10/07 02:47:32;;;;;;;12.40;5.18;;;11.80;99.90;;;;;;5073126;28;20028;-77
2023/10/07 02:50:02;;;;;;;14.23;5.18;;;11.70;99.90;;;;;;5071420;28;20112;-76
2023/10/07 02:52:35;;;;;;;9.27;4.55;;;11.70;99.90;;;;;;5071905;28;20028;-76
2023/10/07 02:55:26;;;;;;;10.48;3.95;;;11.70;99.90;;;;;;5071192;28;20032;-77
2023/10/07 02:57:56;;;;;;;12.48;4.38;;;11.70;99.90;;;;;;5072551;28;20029;-77
2023/10/07 03:00:35;;;;;;;13.80;4.60;;;11.70;99.90;;;;;;5072580;28;20024;-77
2023/10/07 03:05:43;;;;;;;10.85;4.72;;;11.60;99.90;;;;;;5072985;28;20029;-77
2023/10/07 03:08:21;;;;;;;10.82;4.82;;;11.50;99.90;;;;;;5071454;28;20485;-77
2023/10/07 03:11:03;;;;;;;12.90;4.78;;;11.50;99.90;;;;;;5072537;28;20030;-77
2023/10/07 03:13:37;;;;;;;14.13;4.95;;;11.50;99.90;;;;;;5071511;28;20035;-77
2023/10/07 03:16:10;;;;;;;12.15;4.70;;;11.50;99.90;;;;;;5072566;28;20043;-78
2023/10/07 03:18:38;;;;;;;11.32;4.38;;;11.50;99.90;;;;;;5071129;28;20078;-77
2023/10/07 03:21:11;;;;;;;12.80;4.75;;;11.40;99.90;;;;;;5070806;28;20063;-78
2023/10/07 03:23:45;;;;;;;10.68;4.72;;;11.40;99.90;;;;;;5071453;28;20036;-77
2023/10/07 03:26:18;;;;;;;15.00;4.70;;;11.40;99.90;;;;;;5071160;28;20029;-77
2023/10/07 03:28:51;;;;;;;13.05;4.43;;;11.30;99.90;;;;;;5071564;28;20428;-77
2023/10/07 03:31:20;;;;;;;15.98;4.85;;;11.30;99.90;;;;;;5070894;28;20465;-77
2023/10/07 03:33:58;;;;;;;12.32;4.75;;;11.30;99.90;;;;;;5072301;28;20017;-77
2023/10/07 03:37:14;;;;;;;13.93;4.85;;;11.30;99.90;;;;;;5070806;28;20445;-77
2023/10/07 03:41:55;;;;;;;10.75;4.78;;;11.20;99.90;;;;;;5076272;28;20025;-77
2023/10/07 03:44:22;;;;;;;13.95;4.97;;;11.20;99.90;;;;;;5074561;28;20384;-77
2023/10/07 03:46:49;;;;;;;11.73;4.82;;;11.20;99.90;;;;;;5074964;28;20469;-77
2023/10/07 03:49:16;;;;;;;12.25;4.85;;;11.20;99.90;;;;;;5074429;28;20078;-77
2023/10/07 03:51:45;;;;;;;12.95;4.50;;;11.20;99.90;;;;;;5074689;28;20101;-77
2023/10/07 03:54:15;;;;;;;12.93;5.15;;;11.20;99.90;;;;;;5075438;28;20364;-77
2023/10/07 03:56:42;;;;;;;13.05;5.43;;;11.10;99.90;;;;;;5074887;28;20036;-77
2023/10/07 03:59:08;;;;;;;10.05;4.80;;;11.10;99.90;;;;;;5075172;28;20457;-77
2023/10/07 04:01:42;;;;;;;9.90;4.20;;;11.10;99.90;;;;;;5074705;28;20021;-77
2023/10/07 04:04:11;;;;;;;12.80;4.55;;;11.10;99.90;;;;;;5075597;28;20043;-77
2023/10/07 04:06:38;;;;;;;10.80;4.53;;;11.10;99.90;;;;;;5074641;28;20048;-77
2023/10/07 04:09:11;;;;;;;10.35;5.10;;;11.10;99.90;;;;;;5074556;28;20416;-77
2023/10/07 04:11:39;;;;;;;11.68;4.22;;;11.10;99.90;;;;;;5074716;28;20029;-77
2023/10/07 04:14:29;;;;;;;13.02;4.60;;;11.10;99.90;;;;;;5073741;28;20032;-87
2023/10/07 04:17:11;;;;;;;10.70;4.03;;;11.10;99.90;;;;;;5074728;28;20049;-77
2023/10/07 04:19:47;;;;;;;11.05;4.30;;;11.10;99.90;;;;;;5074520;28;20024;-77
2023/10/07 04:22:13;;;;;;;14.68;4.90;;;11.10;99.90;;;;;;5073892;28;20029;-77
2023/10/07 04:24:43;;;;;;;12.35;5.22;;;11.10;99.90;;;;;;5074309;28;20432;-77
2023/10/07 04:27:18;;;;;;;10.23;4.28;;;11.10;99.90;;;;;;5074076;28;20075;-77
2023/10/07 04:29:44;;;;;;;13.77;4.65;;;11.10;99.90;;;;;;5075244;28;20020;-76
2023/10/07 04:32:20;;;;;;;10.32;4.05;;;11.10;99.90;;;;;;5074635;28;20112;-77
2023/10/07 04:37:47;;;;;;;10.15;4.78;;;11.20;99.90;;;;;;5012928;28;20026;-77
2023/10/07 04:43:25;;;;;;;11.13;4.70;;;11.10;99.90;;;;;;5074861;28;20029;-77
2023/10/07 04:45:37;;;;;;;11.23;4.75;;;11.10;99.90;;;;;;5074199;28;20055;-77
2023/10/07 04:48:24;;;;;;;10.60;3.85;;;11.20;99.90;;;;;;5074817;28;20056;-77
2023/10/07 04:51:03;;;;;;;10.68;4.47;;;11.20;99.90;;;;;;5073502;28;20112;-77
2023/10/07 04:53:39;;;;;;;11.00;4.80;;;11.20;99.90;;;;;;5074337;28;20119;-77
2023/10/07 04:56:09;;;;;;;14.05;4.90;;;11.20;99.90;;;;;;5074683;28;20036;-77
2023/10/07 04:58:39;;;;;;;11.80;4.43;;;11.10;99.90;;;;;;5073414;28;20025;-77
2023/10/07 05:03:55;;;;;;;10.90;4.72;;;11.20;99.90;;;;;;5074856;28;20039;-77
2023/10/07 05:06:21;;;;;;;11.27;4.50;;;11.20;99.90;;;;;;5074003;28;20027;-77
2023/10/07 05:08:48;;;;;;;8.95;4.50;;;11.10;99.90;;;;;;5073294;28;20074;-77
2023/10/07 05:11:17;;;;;;;13.90;4.85;;;11.10;99.90;;;;;;5072859;28;20115;-77
2023/10/07 05:13:45;;;;;;;11.23;4.25;;;11.20;99.90;;;;;;5073378;28;20507;-77
2023/10/07 05:16:14;;;;;;;13.77;4.78;;;11.20;99.90;;;;;;5072417;28;20086;-78
2023/10/07 05:18:42;;;;;;;13.10;4.40;;;11.20;99.90;;;;;;5074396;28;20032;-76
2023/10/07 05:21:08;;;;;;;11.50;4.40;;;11.30;99.90;;;;;;5073071;28;20024;-77
2023/10/07 05:23:34;;;;;;;11.65;4.05;;;11.30;99.90;;;;;;5073021;28;20025;-77
2023/10/07 05:26:03;;;;;;;8.68;4.28;;;11.30;99.90;;;;;;5072970;28;20078;-76
2023/10/07 05:28:33;;;;;;;9.13;3.92;;;11.20;99.90;;;;;;5073921;28;20230;-77
2023/10/07 05:31:03;;;;;;;10.60;5.13;;;11.30;99.90;;;;;;5072950;28;20024;-77
2023/10/07 05:33:34;;;;;;;14.07;4.57;;;11.20;99.90;;;;;;5072324;28;20662;-76
2023/10/07 05:36:08;;;;;;;12.27;4.57;;;11.20;99.90;;;;;;5073052;28;20044;-77
2023/10/07 05:38:37;;;;;;;9.75;4.07;;;11.10;99.90;;;;;;5074003;28;20075;-77
2023/10/07 05:41:06;;;;;;;13.27;4.47;;;11.20;99.90;;;;;;5072484;28;20024;-77
2023/10/07 05:43:32;;;;;;;9.75;4.93;;;11.20;99.90;;;;;;5072083;28;20025;-77
2023/10/07 05:45:58;;;;;;;10.38;4.65;;;11.20;99.90;;;;;;5073249;28;20126;-77
2023/10/07 05:48:25;;;;;;;11.23;4.30;;;11.20;99.90;;;;;;5071928;28;20041;-77
2023/10/07 05:50:54;;;;;;;11.13;4.30;;;11.20;99.90;;;;;;5073618;28;20516;-77
2023/10/07 05:53:20;;;;;;;10.13;4.38;;;11.20;99.90;;;;;;5073119;28;20020;-77
2023/10/07 05:55:47;;;;;;;11.27;4.85;;;11.20;99.90;;;;;;5073505;28;20064;-76
2023/10/07 05:58:14;;;;;;;10.40;3.97;;;11.10;99.90;;;;;;5071774;28;20032;-77
2023/10/07 06:00:40;;;;;;;9.98;4.10;;;11.20;99.90;;;;;;5071664;28;20024;-77
2023/10/07 06:03:08;;;;;;;11.05;4.32;;;11.20;99.90;;;;;;5073850;28;20025;-77
2023/10/07 06:05:37;;;;;;;13.32;4.32;;;11.20;99.90;;;;;;5072853;28;20457;-77
2023/10/07 06:08:04;;;;;;;17.83;8.55;;;11.20;99.90;;;;;;5072300;28;20389;-77
2023/10/07 06:10:33;;;;;;;18.52;8.18;;;11.20;99.90;;;;;;5071632;28;20021;-77
2023/10/07 06:13:08;;;;;;;13.60;6.30;;;11.10;99.90;;;;;;5073414;28;20067;-77
2023/10/07 06:15:37;;;;;;;8.48;4.22;;;11.10;99.90;;;;;;5071448;28;20029;-77
2023/10/07 06:18:07;;;;;;;11.23;4.03;;;11.10;99.90;;;;;;5072212;28;20091;-77
2023/10/07 06:20:46;;;;;;;9.60;4.65;;;11.20;99.90;;;;;;5071498;28;20044;-77
2023/10/07 06:23:15;;;;;;;9.65;4.07;;;11.20;99.90;;;;;;5072101;28;20021;-77
2023/10/07 06:25:51;;;;;;;14.15;4.75;;;11.20;99.90;;;;;;5072003;28;20086;-77
2023/10/07 06:31:13;;;;;;;9.68;4.38;;;11.20;99.90;;;;;;5073097;28;20033;-77
2023/10/07 06:33:40;;;;;;;9.73;4.28;;;11.30;99.90;;;;;;5072018;28;20029;-77
2023/10/07 06:36:10;;;;;;;10.27;4.00;;;11.30;99.90;;;;;;5071906;28;20101;-77
2023/10/07 06:38:38;;;;;;;11.65;4.55;;;11.30;99.90;;;;;;5072542;28;20365;-77
2023/10/07 06:41:10;;;;;;;18.05;4.45;;;11.40;99.90;;;;;;5071644;28;20029;-77
2023/10/07 06:43:41;;;;;;;;;;;11.40;99.90;;;;;;5071395;28;20024;-77
2023/10/07 06:46:10;;;;;;;12.25;4.40;;;11.40;99.90;;;;;;5071683;28;19909;-76
2023/10/07 06:48:37;;;;;;;10.75;4.47;;;11.40;99.90;;;;;;5070979;28;20044;-77
2023/10/07 06:51:03;;;;;;;9.98;4.53;;;11.40;99.90;;;;;;5071704;28;20485;-77
2023/10/07 06:53:30;;;;;;;9.07;4.40;;;11.40;99.90;;;;;;5076443;28;20037;-77
2023/10/07 06:55:58;;;;;;;9.98;4.60;;;11.50;99.90;;;;;;5083045;28;20431;-77
2023/10/07 06:58:25;;;;;;;11.68;4.50;;;11.50;99.90;;;;;;5091234;28;20142;-76
2023/10/07 07:00:56;;;;;;;9.02;4.22;;;11.50;99.90;;;;;;5088138;28;20111;-77
2023/10/07 07:03:25;;;;;;;9.75;4.22;;;11.50;99.90;;;;;;5081149;28;20373;-77
2023/10/07 07:05:51;;;;;;;10.57;4.13;;;11.60;99.90;;;;;;5085661;28;20119;-77
2023/10/07 07:08:22;;;;;;;9.65;4.20;;;11.60;99.90;;;;;;5085072;28;20017;-77
2023/10/07 07:10:56;;;;;;;10.82;4.30;;;11.70;99.90;;;;;;5086343;28;20029;-77
2023/10/07 07:13:27;;;;;;;10.90;4.15;;;11.80;99.90;;;;;;5093471;28;20043;-77
2023/10/07 07:16:06;;;;;;;12.63;4.00;;;11.80;99.90;;;;;;5092937;28;20491;-77
2023/10/07 07:18:32;;;;;;;10.98;4.00;;;11.90;99.90;;;;;;5092451;28;20044;-77
2023/10/07 07:21:00;;;;;;;11.85;4.53;;;12.00;99.90;;;;;;5092393;28;20354;-80
2023/10/07 07:23:40;;;;;;;10.02;3.67;;;12.10;99.90;;;;;;5091702;28;20465;-76
2023/10/07 07:26:10;;;;;;;8.10;3.70;;;12.20;99.90;;;;;;5092070;28;21281;-76
2023/10/07 07:28:42;;;;;;;7.55;3.90;;;12.20;99.90;;;;;;5089797;28;20198;-77
2023/10/07 07:31:11;;;;;;;8.55;3.85;;;12.30;99.90;;;;;;5093719;28;20073;-77
2023/10/07 07:33:38;;;;;;;8.18;3.50;;;12.30;99.90;;;;;;5090652;28;20042;-77
2023/10/07 07:36:18;;;;;;;7.88;3.80;;;12.40;99.90;;;;;;5092341;28;20043;-77
2023/10/07 07:38:44;;;;;;;12.02;3.92;;;12.50;99.90;;;;;;5091681;28;20039;-77
2023/10/07 07:41:26;;;;;;;10.13;4.20;;;12.50;99.90;;;;;;5092964;28;20066;-77
2023/10/07 07:43:53;;;;;;;10.60;3.67;;;12.60;99.90;;;;;;5093481;28;20024;-77
2023/10/07 07:46:26;;;;;;;13.88;4.00;;;12.70;99.90;;;;;;5091252;28;20051;-78
2023/10/07 07:48:53;;;;;;;13.18;5.07;;;12.70;99.90;;;;;;5095633;28;20059;-76
2023/10/07 07:51:24;;;;;;;7.03;4.20;;;12.80;99.90;;;;;;5094572;28;20358;-77
2023/10/07 07:53:50;;;;;;;9.63;3.78;;;12.90;99.90;;;;;;5093507;28;20469;-77
2023/10/07 07:56:16;;;;;;;9.73;4.07;;;12.90;99.90;;;;;;5108785;28;20024;-76
2023/10/07 07:58:47;;;;;;;8.35;3.88;;;12.90;99.90;;;;;;5107235;28;20035;-77
2023/10/07 08:01:28;;;;;;;8.90;3.67;;;12.80;99.90;;;;;;5091154;28;20024;-77
2023/10/07 08:04:09;;;;;;;8.68;3.72;;;12.80;99.90;;;;;;5088387;28;20124;-77
2023/10/07 08:06:35;;;;;;;8.10;3.80;;;12.80;99.90;;;;;;5097919;28;20035;-77
2023/10/07 08:09:03;;;;;;;14.63;4.70;;;12.90;99.90;;;;;;5105724;28;20033;-79
2023/10/07 08:11:34;;;;;;;9.63;3.60;;;13.00;99.90;;;;;;5090606;28;20032;-76
2023/10/07 08:14:09;;;;;;;;;;;13.00;99.90;;;;;;5097348;28;20136;-76
2023/10/07 08:16:46;;;;;;;7.40;3.50;;;13.00;99.90;;;;;;5108996;28;20395;-76
2023/10/07 08:19:13;;;;;;;8.77;3.40;;;13.10;99.90;;;;;;5105353;28;20077;-76
2023/10/07 08:21:39;;;;;;;12.00;3.72;;;13.20;99.90;;;;;;5091996;28;20047;-76
2023/10/07 08:24:06;;;;;;;10.75;3.78;;;13.30;99.90;;;;;;5102850;28;20028;-76
2023/10/07 08:26:34;;;;;;;7.60;3.35;;;13.40;99.90;;;;;;5109630;28;20440;-76
2023/10/07 08:29:00;;;;;;;10.60;3.35;;;13.50;99.90;;;;;;5103902;28;20077;-82
2023/10/07 08:31:37;;;;;;;7.05;2.95;;;13.70;99.90;;;;;;5095078;28;20020;-78
2023/10/07 08:36:36;;;;;;;10.98;3.47;;;13.90;99.90;;;;;;5109239;28;20039;-76
2023/10/07 08:39:06;;;;;;;9.77;2.95;;;14.00;99.90;;;;;;5103775;28;20058;-77
2023/10/07 08:41:32;;;;;;;6.55;3.08;;;14.00;99.90;;;;;;5097076;28;20536;-76
2023/10/07 08:44:15;;;;;;;11.65;3.72;;;14.10;99.90;;;;;;5112008;28;20080;-78
2023/10/07 08:46:48;;;;;;;9.88;3.42;;;14.20;99.90;;;;;;5101645;28;20114;-75
2023/10/07 08:49:24;;;;;;;9.75;2.90;;;14.30;99.90;;;;;;5101909;28;20080;-76
2023/10/07 08:51:52;;;;;;;8.90;3.40;;;14.40;99.90;;;;;;5088830;28;20052;-83
2023/10/07 08:54:19;;;;;;;8.73;3.50;;;14.40;99.90;;;;;;5105821;28;20022;-77
2023/10/07 08:56:57;;;;;;;10.82;3.38;;;14.50;99.90;;;;;;5106122;28;20065;-77
2023/10/07 08:59:25;;;;;;;10.90;3.10;;;14.50;99.90;;;;;;5107489;28;20027;-77
2023/10/07 09:01:57;;;;;;;8.07;2.88;;;14.60;99.90;;;;;;5087397;28;20028;-78
2023/10/07 09:04:33;;;;;;;8.40;3.08;;;14.60;99.90;;;;;;5108928;28;20024;-77
2023/10/07 09:07:00;;;;;;;9.35;3.03;;;14.60;99.90;;;;;;5104624;28;20023;-78
2023/10/07 09:09:37;;;;;;;6.57;2.88;;;14.60;99.90;;;;;;5099638;28;20097;-77
2023/10/07 09:12:49;;;;;;;10.48;3.60;;;14.70;99.90;;;;;;5091120;28;20028;-77
2023/10/07 09:14:52;;;;;;;9.52;2.92;;;14.70;99.90;;;;;;5095629;28;20051;-77
2023/10/07 09:17:22;;;;;;;9.93;2.70;;;14.80;99.90;;;;;;5105264;28;20035;-77
2023/10/07 09:19:58;;;;;;;9.38;3.50;;;14.80;99.90;;;;;;5096992;28;20024;-77
2023/10/07 09:22:33;;;;;;;28.60;8.93;;;14.90;99.90;;;;;;5093916;28;20028;-79
2023/10/07 09:25:17;;;;;;;10.65;4.28;;;15.00;99.90;;;;;;5105305;28;20032;-79
2023/10/07 09:27:57;;;;;;;14.05;4.15;;;15.10;99.90;;;;;;5107923;28;20039;-79
2023/10/07 09:30:37;;;;;;;8.18;3.15;;;15.20;99.90;;;;;;5092458;28;20028;-78
2023/10/07 09:33:13;;;;;;;8.48;3.15;;;15.30;99.90;;;;;;5093716;28;20032;-78
2023/10/07 09:35:42;;;;;;;7.80;2.75;;;15.30;99.90;;;;;;5091406;28;20140;-78
2023/10/07 09:38:12;;;;;;;5.45;2.83;;;15.40;99.90;;;;;;5093363;28;20362;-78
2023/10/07 09:43:29;;;;;;;7.50;2.65;;;15.60;99.90;;;;;;5093961;28;20024;-80
2023/10/07 09:45:58;;;;;;;6.28;2.65;;;15.70;99.90;;;;;;5094219;28;20081;-79
2023/10/07 09:48:31;;;;;;;7.53;2.67;;;15.90;99.90;;;;;;5089778;28;20032;-80
2023/10/07 09:50:58;;;;;;;7.82;2.88;;;15.90;99.90;;;;;;5092126;28;20024;-79
2023/10/07 09:53:27;;;;;;;8.77;3.10;;;15.90;99.90;;;;;;5103013;28;20024;-80
2023/10/07 09:56:29;;;;;;;6.82;2.75;;;16.00;99.90;;;;;;5108703;28;20124;-79
2023/10/07 09:59:13;;;;;;;9.20;2.72;;;16.00;99.90;;;;;;5105655;28;20445;-79
2023/10/07 10:02:05;;;;;;;6.10;2.53;;;16.10;99.90;;;;;;5095644;28;20028;-79
2023/10/07 10:04:32;;;;;;;;;;;16.10;99.90;;;;;;5104405;28;20027;-80
2023/10/07 10:07:12;;;;;;;6.88;2.58;;;16.10;99.90;;;;;;5093894;28;19910;-79
2023/10/07 10:12:28;;;;;;;4.43;2.30;;;16.20;99.90;;;;;;5104945;28;20027;-86
2023/10/07 10:14:57;;;;;;;6.00;2.20;;;16.20;99.90;;;;;;5106241;28;20102;-79
2023/10/07 10:17:39;;;;;;;7.32;2.90;;;16.20;99.90;;;;;;5095698;28;20141;-88
2023/10/07 10:20:14;;;;;;;5.82;2.90;;;16.20;99.90;;;;;;5107189;28;20111;-81
2023/10/07 10:22:59;;;;;;;6.32;2.22;;;16.30;99.90;;;;;;5104440;28;20024;-80
2023/10/07 10:25:36;;;;;;;5.63;2.55;;;16.40;99.90;;;;;;5095629;28;20020;-80
2023/10/07 10:28:10;;;;;;;5.63;2.67;;;16.60;99.90;;;;;;5108694;28;20055;-82
2023/10/07 10:30:53;;;;;;;5.47;2.22;;;16.70;99.90;;;;;;5102762;28;20027;-81
2023/10/07 10:33:21;;;;;;;7.78;3.15;;;16.80;99.90;;;;;;5097832;28;20465;-81
2023/10/07 10:35:59;;;;;;;6.38;2.70;;;16.90;99.90;;;;;;5077702;28;20079;-79
2023/10/07 10:38:38;;;;;;;6.93;2.33;;;17.00;99.90;;;;;;5081103;28;20020;-79
2023/10/07 10:41:04;;;;;;;7.43;2.60;;;17.00;99.90;;;;;;5105218;28;20026;-78
2023/10/07 10:43:33;;;;;;;7.90;2.72;;;17.10;99.90;;;;;;5110095;28;20047;-79
2023/10/07 10:46:06;;;;;;;6.18;2.75;;;17.20;99.90;;;;;;5095919;28;20122;-81
2023/10/07 10:48:33;;;;;;;5.80;2.70;;;17.20;99.90;;;;;;5089962;28;20032;-83
2023/10/07 10:50:59;;;;;;;7.28;2.92;;;17.30;99.90;;;;;;5097562;28;20055;-81
2023/10/07 10:53:25;;;;;;;6.18;2.63;;;17.30;99.90;;;;;;5086567;28;20021;-80
2023/10/07 10:55:53;;;;;;;8.32;2.42;;;17.30;99.90;;;;;;5105469;28;20031;-78
2023/10/07 10:58:21;;;;;;;11.00;3.05;;;17.40;99.90;;;;;;5105127;28;20020;-79
2023/10/07 11:00:49;;;;;;;5.00;2.05;;;17.40;99.90;;;;;;5103960;28;20031;-78
2023/10/07 11:03:20;;;;;;;9.23;2.40;;;17.50;99.90;;;;;;5095587;28;20428;-82
2023/10/07 11:05:50;;;;;;;6.85;2.20;;;17.50;99.90;;;;;;5094709;28;20023;-80
2023/10/07 11:08:22;;;;;;;5.97;2.45;;;17.50;99.90;;;;;;5104595;28;20032;-80
2023/10/07 11:10:58;;;;;;;10.63;2.47;;;17.60;99.90;;;;;;5103725;28;20365;-80
2023/10/07 11:13:25;;;;;;;7.35;2.42;;;17.60;99.90;;;;;;5095445;28;20123;-83
2023/10/07 11:16:11;;;;;;;7.68;2.20;;;17.60;99.90;;;;;;5113680;28;20036;-80
2023/10/07 11:18:38;;;;;;;5.35;2.65;;;17.60;99.90;;;;;;5103646;28;20077;-81
2023/10/07 11:21:18;;;;;;;4.75;2.38;;;17.60;99.90;;;;;;5094764;28;20543;-80
2023/10/07 11:23:59;;;;;;;9.10;2.65;;;17.60;99.90;;;;;;5086912;28;20246;-80
2023/10/07 11:26:26;;;;;;;6.53;2.47;;;17.60;99.90;;;;;;5095513;28;20140;-87
2023/10/07 11:28:55;;;;;;;6.68;2.33;;;17.70;99.90;;;;;;5100285;28;20036;-81
2023/10/07 11:31:31;;;;;;;7.78;2.85;;;17.70;99.90;;;;;;5104851;28;20028;-80
2023/10/07 11:33:57;;;;;;;6.13;2.80;;;17.80;99.90;;;;;;5096363;28;20048;-78
2023/10/07 11:36:23;;;;;;;5.25;2.20;;;17.90;99.90;;;;;;5101229;28;20040;-79
2023/10/07 11:38:50;;;;;;;4.60;2.15;;;17.90;99.90;;;;;;5083952;28;20032;-79
2023/10/07 11:41:16;;;;;;;5.85;2.20;;;18.00;99.90;;;;;;5085065;28;20021;-78
2023/10/07 11:43:43;;;;;;;5.40;2.28;;;18.20;99.90;;;;;;5088840;28;20030;-78
2023/10/07 11:46:11;;;;;;;7.28;2.50;;;18.20;99.90;;;;;;5085114;28;20028;-77
2023/10/07 11:48:41;;;;;;;4.63;1.80;;;18.30;99.70;;;;;;5086038;28;20116;-78
2023/10/07 11:51:10;;;;;;;5.38;2.28;;;18.30;99.60;;;;;;5080285;28;20024;-78
2023/10/07 11:53:36;;;;;;;7.45;2.63;;;18.40;99.50;;;;;;5088545;28;20032;-78
2023/10/07 11:56:11;;;;;;;5.65;2.13;;;18.50;99.50;;;;;;5086363;28;20465;-79
2023/10/07 11:58:37;;;;;;;8.50;2.30;;;18.50;99.40;;;;;;5083850;28;20035;-79
2023/10/07 12:01:03;;;;;;;6.18;2.30;;;18.50;99.00;;;;;;5088065;28;20017;-78
2023/10/07 12:03:30;;;;;;;7.28;2.17;;;18.50;99.10;;;;;;5091238;28;20028;-79
2023/10/07 12:05:58;;;;;;;5.00;2.33;;;18.50;99.10;;;;;;5091973;28;20034;-81
2023/10/07 12:08:25;;;;;;;6.95;2.25;;;18.50;98.70;;;;;;5094479;28;20098;-80
2023/10/07 12:10:51;;;;;;;10.60;2.25;;;18.50;98.70;;;;;;5084686;28;20035;-80
2023/10/07 12:13:19;;;;;;;7.20;2.30;;;18.60;98.70;;;;;;5089739;28;20025;-80
2023/10/07 12:15:45;;;;;;;6.30;2.42;;;18.60;98.20;;;;;;5092796;28;20108;-81
2023/10/07 12:18:16;;;;;;;4.47;2.05;;;18.60;98.40;;;;;;5089262;28;20437;-79
2023/10/07 12:20:42;;;;;;;9.95;2.42;;;18.60;98.10;;;;;;5088109;28;20012;-77
2023/10/07 12:23:08;;;;;;;5.75;2.33;;;18.70;98.10;;;;;;5088231;28;20021;-80
2023/10/07 12:25:35;;;;;;;6.55;2.60;;;18.70;97.90;;;;;;5091163;28;20089;-79
2023/10/07 12:28:05;;;;;;;5.80;2.35;;;18.70;97.70;;;;;;5090226;28;20016;-80
2023/10/07 12:30:31;;;;;;;9.07;2.22;;;18.70;97.50;;;;;;5088199;28;20028;-81
2023/10/07 12:32:57;;;;;;;8.50;2.15;;;18.90;97.50;;;;;;5093620;28;20028;-79
2023/10/07 12:35:24;;;;;;;7.07;2.53;;;19.10;97.10;;;;;;5089194;28;20079;-79
2023/10/07 12:37:52;;;;;;;5.72;2.03;;;19.20;97.10;;;;;;5092638;28;20076;-79
2023/10/07 12:40:18;;;;;;;4.45;2.20;;;19.20;97.10;;;;;;5087568;28;20488;-78
2023/10/07 12:42:45;;;;;;;8.50;1.98;;;19.20;97.10;;;;;;5086858;28;20820;-79
2023/10/07 12:45:12;;;;;;;5.15;1.98;;;19.20;97.10;;;;;;5092030;28;20032;-78
2023/10/07 12:47:39;;;;;;;8.25;2.50;;;19.20;97.30;;;;;;5089516;28;20082;-81
2023/10/07 12:50:20;;;;;;;5.70;2.00;;;19.20;97.30;;;;;;5088145;28;20047;-79
2023/10/07 12:52:50;;;;;;;5.72;1.92;;;19.50;97.10;;;;;;5092081;28;20047;-78
2023/10/07 12:55:19;;;;;;;7.13;2.10;;;20.10;96.40;;;;;;5088750;28;20032;-79
2023/10/07 12:57:45;;;;;;;8.20;2.65;;;20.90;95.20;;;;;;5086228;28;20035;-78
2023/10/07 13:00:29;;;;;;;5.85;2.88;;;21.50;94.10;;;;;;5086552;28;20354;-79
2023/10/07 13:02:55;;;;;;;9.77;2.75;;;22.10;93.30;;;;;;5085753;28;20031;-79
2023/10/07 13:05:22;;;;;;;5.43;2.30;;;22.20;93.00;;;;;;5088193;28;20024;-80
2023/10/07 13:07:49;;;;;;;4.43;1.90;;;22.10;92.90;;;;;;5083944;28;20020;-80
2023/10/07 13:10:17;;;;;;;4.95;1.77;;;22.00;92.80;;;;;;5087131;28;20453;-79
2023/10/07 13:12:43;;;;;;;6.25;2.05;;;21.80;92.90;;;;;;5084780;28;20074;-79
2023/10/07 13:15:16;;;;;;;5.93;2.30;;;21.90;92.90;;;;;;5087978;28;20043;-80
2023/10/07 13:17:45;;;;;;;4.10;1.73;;;22.40;92.50;;;;;;5091214;28;20032;-81
2023/10/07 13:20:20;;;;;;;4.90;1.40;;;23.00;91.70;;;;;;5089848;28;20020;-80
2023/10/07 13:22:47;;;;;;;5.05;2.10;;;23.30;91.30;;;;;;5085338;28;20028;-80
2023/10/07 13:25:13;;;;;;;4.57;2.00;;;23.30;90.30;;;;;;5087054;28;20024;-77
2023/10/07 13:27:40;;;;;;;6.35;2.05;;;23.30;90.10;;;;;;5089111;28;20432;-78
2023/10/07 13:30:12;;;;;;;6.30;2.25;;;23.30;90.10;;;;;;5087587;28;20368;-78
2023/10/07 13:32:47;;;;;;;4.15;2.13;;;23.50;90.00;;;;;;5083413;28;20020;-79